createdAt,value
2018-08-14T00:00:36.678Z,30.65
2018-08-14T00:01:36.714Z,30.65
2018-08-14T00:02:36.726Z,30.75
2018-08-14T00:03:36.750Z,30.75
2018-08-14T00:04:36.753Z,30.77
2018-08-14T00:05:36.806Z,30.74
2018-08-14T00:06:36.819Z,30.70
2018-08-14T00:07:36.866Z,30.70
2018-08-14T00:08:36.840Z,30.74
2018-08-14T00:09:36.874Z,30.77
2018-08-14T00:10:36.882Z,30.80
2018-08-14T00:11:36.925Z,30.75
2018-08-14T00:12:36.953Z,30.69
2018-08-14T00:13:36.953Z,30.66
2018-08-14T00:14:36.962Z,30.69
2018-08-14T00:15:37.013Z,30.60
2018-08-14T00:16:37.052Z,30.59
2018-08-14T00:17:37.081Z,30.67
2018-08-14T00:18:37.055Z,30.70
2018-08-14T00:19:37.103Z,30.66
2018-08-14T00:20:37.139Z,30.59
2018-08-14T00:21:37.164Z,30.59
2018-08-14T00:22:37.169Z,30.72
2018-08-14T00:23:37.192Z,30.67
2018-08-14T00:24:37.223Z,30.67
2018-08-14T00:25:37.236Z,30.65
2018-08-14T00:26:37.259Z,30.62
2018-08-14T00:27:37.292Z,30.66
2018-08-14T00:28:37.310Z,30.66
2018-08-14T00:29:37.295Z,30.63
2018-08-14T00:30:37.348Z,30.60
2018-08-14T00:31:37.373Z,30.67
2018-08-14T00:32:37.405Z,30.56
2018-08-14T00:33:37.415Z,30.60
2018-08-14T00:34:37.438Z,30.56
2018-08-14T00:35:37.461Z,30.54
2018-08-14T00:36:37.484Z,30.59
2018-08-14T00:37:37.497Z,30.57
2018-08-14T00:38:37.524Z,30.60
2018-08-14T00:39:37.527Z,30.57
2018-08-14T00:40:37.585Z,30.59
2018-08-14T00:41:37.575Z,30.48
2018-08-14T00:42:37.584Z,30.51
2018-08-14T00:43:37.649Z,30.59
2018-08-14T00:44:37.661Z,30.62
2018-08-14T00:45:37.759Z,30.67
2018-08-14T00:46:37.680Z,30.70
2018-08-14T00:47:37.724Z,30.77
2018-08-14T00:48:37.748Z,30.75
2018-08-14T00:49:37.761Z,30.77
2018-08-14T00:50:37.783Z,30.77
2018-08-14T00:51:37.796Z,30.91
2018-08-14T00:52:37.837Z,30.78
2018-08-14T00:53:37.826Z,30.75
2018-08-14T00:54:37.849Z,30.78
2018-08-14T00:55:37.905Z,30.81
2018-08-14T00:56:37.924Z,30.70
2018-08-14T00:57:37.891Z,30.77
2018-08-14T00:58:37.908Z,30.82
2018-08-14T00:59:37.935Z,30.84
2018-08-14T01:00:37.990Z,30.84
2018-08-14T01:01:38.036Z,30.78
2018-08-14T01:02:38.059Z,30.84
2018-08-14T01:03:38.048Z,30.80
2018-08-14T01:04:38.082Z,30.81
2018-08-14T01:05:38.125Z,30.80
2018-08-14T01:06:38.126Z,30.80
2018-08-14T01:07:38.149Z,30.82
2018-08-14T01:08:38.230Z,30.88
2018-08-14T01:09:38.214Z,30.85
2018-08-14T01:10:38.238Z,30.89
2018-08-14T01:11:38.244Z,30.96
2018-08-14T01:12:38.271Z,30.96
2018-08-14T01:13:38.295Z,30.96
2018-08-14T01:14:38.304Z,30.93
2018-08-14T01:15:38.350Z,30.97
2018-08-14T01:16:38.368Z,30.88
2018-08-14T01:17:38.334Z,30.88
2018-08-14T01:18:38.377Z,31.00
2018-08-14T01:19:38.405Z,30.88
2018-08-14T01:20:38.459Z,30.91
2018-08-14T01:21:38.486Z,30.93
2018-08-14T01:22:38.486Z,30.96
2018-08-14T01:23:38.505Z,30.99
2018-08-14T01:24:38.549Z,31.03
2018-08-14T01:25:38.571Z,31.00
2018-08-14T01:26:38.573Z,30.99
2018-08-14T01:27:38.630Z,31.04
2018-08-14T01:28:38.640Z,31.12
2018-08-14T01:29:38.661Z,31.02
2018-08-14T01:30:39.670Z,31.15
2018-08-14T01:31:38.715Z,31.19
2018-08-14T01:32:38.737Z,31.16
2018-08-14T01:33:38.748Z,31.22
2018-08-14T01:34:38.788Z,31.21
2018-08-14T01:35:38.777Z,31.21
2018-08-14T01:36:38.819Z,31.16
2018-08-14T01:37:38.840Z,31.19
2018-08-14T01:38:38.862Z,31.22
2018-08-14T01:39:38.862Z,31.30
2018-08-14T01:40:38.910Z,31.37
2018-08-14T01:41:38.929Z,31.31
2018-08-14T01:42:38.939Z,31.38
2018-08-14T01:43:38.952Z,31.30
2018-08-14T01:44:38.999Z,31.36
2018-08-14T01:45:39.016Z,31.37
2018-08-14T01:46:39.055Z,31.38
2018-08-14T01:47:39.065Z,31.31
2018-08-14T01:48:39.084Z,31.37
2018-08-14T01:49:39.099Z,31.38
2018-08-14T01:50:39.136Z,31.49
2018-08-14T01:51:39.158Z,31.44
2018-08-14T01:52:39.154Z,31.43
2018-08-14T01:53:39.208Z,31.51
2018-08-14T01:54:39.211Z,31.48
2018-08-14T01:55:39.246Z,31.43
2018-08-14T01:56:39.270Z,31.44
2018-08-14T01:57:39.268Z,31.44
2018-08-14T01:58:39.316Z,31.51
2018-08-14T01:59:39.312Z,31.53
2018-08-14T02:00:39.326Z,31.55
2018-08-14T02:01:39.393Z,31.62
2018-08-14T02:02:39.382Z,31.62
2018-08-14T02:03:39.421Z,31.62
2018-08-14T02:04:39.450Z,31.58
2018-08-14T02:05:39.462Z,31.60
2018-08-14T02:06:39.499Z,31.62
2018-08-14T02:07:39.493Z,31.58
2018-08-14T02:08:39.549Z,31.59
2018-08-14T02:09:39.553Z,31.51
2018-08-14T02:10:39.561Z,31.52
2018-08-14T02:11:39.581Z,31.60
2018-08-14T02:12:39.639Z,31.60
2018-08-14T02:13:39.656Z,31.67
2018-08-14T02:14:39.655Z,31.71
2018-08-14T02:15:42.433Z,31.74
2018-08-14T02:16:39.726Z,31.80
2018-08-14T02:17:39.743Z,31.75
2018-08-14T02:18:39.752Z,31.82
2018-08-14T02:19:39.781Z,31.80
2018-08-14T02:20:39.776Z,31.74
2018-08-14T02:21:39.809Z,31.82
2018-08-14T02:22:39.857Z,31.87
2018-08-14T02:23:39.891Z,31.90
2018-08-14T02:24:39.883Z,31.90
2018-08-14T02:25:39.937Z,31.86
2018-08-14T02:26:39.947Z,31.78
2018-08-14T02:27:39.964Z,31.81
2018-08-14T02:28:40.001Z,31.80
2018-08-14T02:29:40.003Z,31.94
2018-08-14T02:30:40.023Z,32.05
2018-08-14T02:31:40.035Z,31.96
2018-08-14T02:32:40.055Z,32.01
2018-08-14T02:33:40.113Z,32.05
2018-08-14T02:34:40.130Z,31.96
2018-08-14T02:35:40.125Z,32.12
2018-08-14T02:36:40.184Z,32.00
2018-08-14T02:37:40.192Z,32.01
2018-08-14T02:38:40.223Z,31.98
2018-08-14T02:39:40.251Z,32.11
2018-08-14T02:40:40.263Z,31.97
2018-08-14T02:41:40.284Z,32.03
2018-08-14T02:42:40.292Z,32.03
2018-08-14T02:43:40.311Z,31.97
2018-08-14T02:44:40.353Z,32.08
2018-08-14T02:45:40.395Z,32.11
2018-08-14T02:46:40.381Z,32.15
2018-08-14T02:47:40.402Z,31.97
2018-08-14T02:48:40.428Z,31.94
2018-08-14T02:49:40.454Z,31.70
2018-08-14T02:50:40.472Z,31.74
2018-08-14T02:51:40.513Z,31.89
2018-08-14T02:52:40.535Z,31.91
2018-08-14T02:53:40.548Z,31.75
2018-08-14T02:54:40.563Z,31.80
2018-08-14T02:55:40.601Z,31.97
2018-08-14T02:56:40.662Z,31.96
2018-08-14T02:57:40.679Z,32.05
2018-08-14T02:58:40.673Z,32.03
2018-08-14T02:59:40.675Z,31.97
2018-08-14T03:00:40.703Z,32.06
2018-08-14T03:01:40.736Z,32.13
2018-08-14T03:02:40.770Z,32.13
2018-08-14T03:03:40.793Z,32.03
2018-08-14T03:04:40.837Z,32.08
2018-08-14T03:05:40.868Z,32.11
2018-08-14T03:06:40.878Z,32.01
2018-08-14T03:07:40.885Z,32.12
2018-08-14T03:08:40.922Z,32.11
2018-08-14T03:09:40.950Z,32.16
2018-08-14T03:10:40.939Z,32.16
2018-08-14T03:11:40.992Z,32.23
2018-08-14T03:12:41.697Z,32.20
2018-08-14T03:13:41.025Z,32.23
2018-08-14T03:14:41.023Z,32.24
2018-08-14T03:15:41.076Z,32.27
2018-08-14T03:16:41.092Z,32.16
2018-08-14T03:17:41.108Z,32.15
2018-08-14T03:18:41.120Z,32.13
2018-08-14T03:19:41.239Z,32.13
2018-08-14T03:20:41.166Z,32.16
2018-08-14T03:21:41.202Z,32.15
2018-08-14T03:22:41.238Z,32.25
2018-08-14T03:23:41.229Z,32.16
2018-08-14T03:24:41.268Z,32.15
2018-08-14T03:25:42.972Z,32.11
2018-08-14T03:26:41.334Z,32.20
2018-08-14T03:27:41.316Z,32.09
2018-08-14T03:28:41.363Z,32.19
2018-08-14T03:29:41.392Z,32.09
2018-08-14T03:30:41.399Z,32.11
2018-08-14T03:31:41.429Z,32.08
2018-08-14T03:32:41.425Z,32.13
2018-08-14T03:33:41.458Z,32.12
2018-08-14T03:34:41.502Z,32.05
2018-08-14T03:35:41.534Z,32.03
2018-08-14T03:36:41.548Z,32.00
2018-08-14T03:37:41.554Z,32.11
2018-08-14T03:38:41.595Z,32.23
2018-08-14T03:39:41.595Z,32.28
2018-08-14T03:40:41.615Z,32.37
2018-08-14T03:41:41.686Z,32.34
2018-08-14T03:42:41.682Z,32.35
2018-08-14T03:43:41.708Z,32.20
2018-08-14T03:44:41.734Z,32.34
2018-08-14T03:45:41.760Z,32.38
2018-08-14T03:46:41.765Z,32.31
2018-08-14T03:47:41.795Z,32.42
2018-08-14T03:48:41.836Z,32.46
2018-08-14T03:49:41.811Z,32.40
2018-08-14T03:50:41.868Z,32.40
2018-08-14T03:51:41.904Z,32.38
2018-08-14T03:52:41.921Z,32.45
2018-08-14T03:53:41.948Z,32.47
2018-08-14T03:54:41.936Z,32.45
2018-08-14T03:55:41.957Z,32.45
2018-08-14T03:56:41.987Z,32.37
2018-08-14T03:57:42.025Z,32.40
2018-08-14T03:58:42.053Z,32.46
2018-08-14T03:59:42.052Z,32.46
2018-08-14T04:00:42.096Z,32.50
2018-08-14T04:01:42.099Z,32.49
2018-08-14T04:02:42.120Z,32.45
2018-08-14T04:03:42.168Z,32.46
2018-08-14T04:04:42.186Z,32.64
2018-08-14T04:05:43.980Z,32.56
2018-08-14T04:06:42.212Z,32.52
2018-08-14T04:07:42.246Z,32.62
2018-08-14T04:08:42.288Z,32.72
2018-08-14T04:09:42.317Z,32.61
2018-08-14T04:10:42.303Z,32.57
2018-08-14T04:11:42.359Z,32.56
2018-08-14T04:12:42.377Z,32.69
2018-08-14T04:13:42.394Z,32.65
2018-08-14T04:14:42.416Z,32.60
2018-08-14T04:15:42.449Z,32.67
2018-08-14T04:16:42.432Z,32.71
2018-08-14T04:17:42.456Z,32.64
2018-08-14T04:18:42.509Z,32.60
2018-08-14T04:19:42.532Z,32.61
2018-08-14T04:20:42.564Z,32.72
2018-08-14T04:21:42.596Z,32.82
2018-08-14T04:22:42.593Z,32.75
2018-08-14T04:23:42.629Z,32.75
2018-08-14T04:24:42.664Z,32.84
2018-08-14T04:25:42.670Z,32.80
2018-08-14T04:26:42.744Z,32.83
2018-08-14T04:27:42.723Z,32.86
2018-08-14T04:28:42.740Z,32.96
2018-08-14T04:29:42.769Z,32.99
2018-08-14T04:30:42.769Z,32.96
2018-08-14T04:31:42.825Z,32.91
2018-08-14T04:32:42.811Z,32.98
2018-08-14T04:33:42.858Z,32.83
2018-08-14T04:34:42.861Z,32.86
2018-08-14T04:35:42.911Z,32.95
2018-08-14T04:36:42.929Z,32.99
2018-08-14T04:37:42.949Z,33.05
2018-08-14T04:38:42.972Z,32.90
2018-08-14T04:39:43.000Z,32.89
2018-08-14T04:40:43.006Z,32.82
2018-08-14T04:41:43.047Z,32.96
2018-08-14T04:42:43.065Z,32.89
2018-08-14T04:43:43.073Z,32.96
2018-08-14T04:44:43.119Z,32.98
2018-08-14T04:45:43.178Z,33.05
2018-08-14T04:46:43.161Z,33.04
2018-08-14T04:47:46.023Z,32.96
2018-08-14T04:48:43.197Z,33.06
2018-08-14T04:49:43.219Z,33.16
2018-08-14T04:50:43.250Z,32.99
2018-08-14T04:51:43.282Z,33.04
2018-08-14T04:52:43.313Z,32.98
2018-08-14T04:53:43.335Z,33.11
2018-08-14T04:54:43.349Z,33.12
2018-08-14T04:55:43.367Z,33.11
2018-08-14T04:56:43.397Z,33.16
2018-08-14T04:57:43.414Z,33.05
2018-08-14T04:58:43.430Z,33.05
2018-08-14T04:59:45.045Z,33.11
2018-08-14T05:00:43.484Z,33.14
2018-08-14T05:01:43.495Z,33.27
2018-08-14T05:02:43.539Z,33.23
2018-08-14T05:03:43.524Z,33.17
2018-08-14T05:04:43.578Z,33.20
2018-08-14T05:05:43.604Z,33.14
2018-08-14T05:06:43.630Z,33.17
2018-08-14T05:07:43.653Z,33.02
2018-08-14T05:08:43.671Z,33.17
2018-08-14T05:09:43.685Z,33.12
2018-08-14T05:10:43.730Z,33.18
2018-08-14T05:11:43.749Z,33.24
2018-08-14T05:12:43.770Z,33.31
2018-08-14T05:13:43.780Z,33.28
2018-08-14T05:14:43.920Z,33.29
2018-08-14T05:15:43.839Z,33.27
2018-08-14T05:16:43.873Z,33.39
2018-08-14T05:17:43.887Z,33.46
2018-08-14T05:18:43.891Z,33.36
2018-08-14T05:19:43.932Z,33.46
2018-08-14T05:20:43.921Z,33.49
2018-08-14T05:21:43.989Z,33.39
2018-08-14T05:22:44.002Z,33.46
2018-08-14T05:23:44.023Z,33.55
2018-08-14T05:24:44.031Z,33.59
2018-08-14T05:25:44.114Z,33.70
2018-08-14T05:26:44.105Z,33.65
2018-08-14T05:27:44.118Z,33.66
2018-08-14T05:28:44.141Z,33.63
2018-08-14T05:29:44.174Z,33.54
2018-08-14T05:30:44.191Z,33.54
2018-08-14T05:31:44.212Z,33.56
2018-08-14T05:32:44.237Z,33.71
2018-08-14T05:33:44.343Z,33.66
2018-08-14T05:34:44.300Z,33.71
2018-08-14T05:35:44.374Z,33.68
2018-08-14T05:36:44.331Z,33.50
2018-08-14T05:37:44.342Z,33.43
2018-08-14T05:38:44.356Z,33.43
2018-08-14T05:39:44.383Z,33.49
2018-08-14T05:40:44.431Z,33.49
2018-08-14T05:41:44.458Z,33.66
2018-08-14T05:42:44.449Z,33.70
2018-08-14T05:43:44.486Z,33.81
2018-08-14T05:44:44.521Z,33.63
2018-08-14T05:45:44.528Z,33.73
2018-08-14T05:46:44.565Z,33.74
2018-08-14T05:47:44.590Z,33.80
2018-08-14T05:48:44.615Z,33.77
2018-08-14T05:49:44.617Z,33.85
2018-08-14T05:50:44.642Z,33.89
2018-08-14T05:51:44.688Z,33.84
2018-08-14T05:52:44.687Z,33.92
2018-08-14T05:53:44.741Z,33.99
2018-08-14T05:54:44.766Z,33.99
2018-08-14T05:55:44.779Z,33.93
2018-08-14T05:56:44.770Z,34.07
2018-08-14T05:57:44.834Z,34.07
2018-08-14T05:58:44.850Z,34.17
2018-08-14T05:59:44.874Z,34.08
2018-08-14T06:00:44.890Z,34.21
2018-08-14T06:01:44.939Z,34.32
2018-08-14T06:02:44.929Z,34.30
2018-08-14T06:03:44.969Z,34.30
2018-08-14T06:04:44.993Z,34.27
2018-08-14T06:05:44.986Z,34.34
2018-08-14T06:06:45.043Z,34.40
2018-08-14T06:07:45.046Z,34.48
2018-08-14T06:08:45.069Z,34.54
2018-08-14T06:09:45.089Z,34.45
2018-08-14T06:10:45.149Z,34.32
2018-08-14T06:11:45.142Z,34.29
2018-08-14T06:12:45.169Z,34.33
2018-08-14T06:13:45.186Z,34.30
2018-08-14T06:14:45.237Z,34.29
2018-08-14T06:15:45.254Z,34.33
2018-08-14T06:16:45.284Z,34.30
2018-08-14T06:17:45.311Z,34.26
2018-08-14T06:18:45.333Z,34.22
2018-08-14T06:19:45.341Z,34.32
2018-08-14T06:20:45.347Z,34.33
2018-08-14T06:21:45.380Z,34.30
2018-08-14T06:22:45.402Z,34.33
2018-08-14T06:23:45.459Z,34.36
2018-08-14T06:24:45.439Z,34.36
2018-08-14T06:25:45.461Z,34.44
2018-08-14T06:26:45.503Z,34.52
2018-08-14T06:27:45.572Z,34.48
2018-08-14T06:28:45.569Z,34.55
2018-08-14T06:29:45.568Z,34.56
2018-08-14T06:30:45.605Z,34.56
2018-08-14T06:31:45.638Z,34.64
2018-08-14T06:32:45.662Z,34.51
2018-08-14T06:33:45.694Z,34.61
2018-08-14T06:34:45.677Z,34.64
2018-08-14T06:35:45.714Z,34.58
2018-08-14T06:36:45.755Z,34.70
2018-08-14T06:37:45.783Z,34.64
2018-08-14T06:38:45.784Z,34.64
2018-08-14T06:39:45.808Z,34.66
2018-08-14T06:40:45.829Z,34.72
2018-08-14T06:41:45.876Z,34.79
2018-08-14T06:42:45.913Z,34.86
2018-08-14T06:43:45.910Z,34.89
2018-08-14T06:44:45.948Z,34.96
2018-08-14T06:45:45.977Z,34.90
2018-08-14T06:46:46.001Z,34.79
2018-08-14T06:47:46.002Z,34.84
2018-08-14T06:48:46.069Z,34.79
2018-08-14T06:49:46.051Z,34.66
2018-08-14T06:50:47.579Z,34.70
2018-08-14T06:51:46.102Z,34.54
2018-08-14T06:52:46.153Z,34.55
2018-08-14T06:53:46.168Z,34.56
2018-08-14T06:54:46.188Z,34.59
2018-08-14T06:55:46.211Z,34.64
2018-08-14T06:56:46.246Z,34.67
2018-08-14T06:57:46.278Z,34.64
2018-08-14T06:58:46.287Z,34.61
2018-08-14T06:59:46.306Z,34.63
2018-08-14T07:00:46.366Z,34.67
2018-08-14T07:01:46.355Z,34.64
2018-08-14T07:02:46.361Z,34.66
2018-08-14T07:03:46.376Z,34.74
2018-08-14T07:04:46.428Z,34.67
2018-08-14T07:05:46.453Z,34.72
2018-08-14T07:06:46.481Z,34.67
2018-08-14T07:07:46.861Z,34.59
2018-08-14T07:08:46.505Z,34.56
2018-08-14T07:09:46.572Z,34.56
2018-08-14T07:10:46.539Z,34.61
2018-08-14T07:11:46.595Z,34.67
2018-08-14T07:12:46.612Z,34.66
2018-08-14T07:13:46.651Z,34.55
2018-08-14T07:14:46.647Z,34.61
2018-08-14T07:15:46.714Z,34.63
2018-08-14T07:16:46.744Z,34.59
2018-08-14T07:17:46.720Z,34.64
2018-08-14T07:18:46.774Z,34.67
2018-08-14T07:19:46.795Z,34.58
2018-08-14T07:20:47.820Z,34.72
2018-08-14T07:21:46.845Z,34.67
2018-08-14T07:22:46.885Z,34.72
2018-08-14T07:24:47.378Z,34.67
2018-08-14T07:25:47.438Z,34.75
2018-08-14T07:26:47.517Z,34.74
2018-08-14T07:27:47.485Z,34.74
2018-08-14T07:28:47.565Z,34.82
2018-08-14T07:29:47.554Z,34.72
2018-08-14T07:30:48.541Z,34.67
2018-08-14T07:31:47.512Z,34.77
2018-08-14T07:32:47.725Z,34.67
2018-08-14T07:33:48.170Z,34.56
2018-08-14T07:34:47.618Z,34.61
2018-08-14T07:35:50.210Z,34.66
2018-08-14T07:36:48.735Z,34.51
2018-08-14T07:37:47.717Z,34.56
2018-08-14T07:38:47.707Z,34.74
2018-08-14T07:39:47.721Z,34.84
2018-08-14T07:40:47.789Z,34.87
2018-08-14T07:41:47.830Z,34.87
2018-08-14T07:42:48.818Z,34.86
2018-08-14T07:43:47.843Z,34.83
2018-08-14T07:44:48.697Z,34.89
2018-08-14T07:45:47.933Z,34.84
2018-08-14T07:46:47.918Z,34.96
2018-08-14T07:47:47.932Z,35.04
2018-08-14T07:48:49.021Z,35.09
2018-08-14T07:49:48.027Z,35.11
2018-08-14T07:50:47.999Z,35.11
2018-08-14T07:51:48.137Z,35.04
2018-08-14T07:52:48.062Z,34.91
2018-08-14T07:53:48.110Z,34.90
2018-08-14T07:54:49.212Z,34.91
2018-08-14T07:55:48.149Z,34.89
2018-08-14T07:56:48.198Z,34.84
2018-08-14T07:57:48.194Z,34.84
2018-08-14T07:58:52.778Z,34.84
2018-08-14T07:59:48.257Z,34.84
2018-08-14T08:00:49.278Z,34.96
2018-08-14T08:01:49.738Z,34.97
2018-08-14T08:02:48.317Z,35.01
2018-08-14T08:03:50.035Z,34.99
2018-08-14T08:04:48.961Z,35.11
2018-08-14T08:05:48.410Z,35.02
2018-08-14T08:06:49.363Z,35.09
2018-08-14T08:07:48.402Z,35.23
2018-08-14T08:08:50.468Z,35.21
2018-08-14T08:09:51.244Z,35.13
2018-08-14T08:10:48.520Z,35.18
2018-08-14T08:11:48.517Z,35.11
2018-08-14T08:12:49.597Z,35.04
2018-08-14T08:13:48.610Z,35.04
2018-08-14T08:14:51.213Z,34.96
2018-08-14T08:15:48.563Z,35.08
2018-08-14T08:16:48.694Z,35.13
2018-08-14T08:17:48.636Z,35.18
2018-08-14T08:18:49.710Z,35.23
2018-08-14T08:19:48.697Z,35.18
2018-08-14T08:20:48.777Z,35.13
2018-08-14T08:21:48.788Z,35.26
2018-08-14T08:22:48.781Z,35.21
2018-08-14T08:23:48.801Z,35.26
2018-08-14T08:24:49.819Z,35.06
2018-08-14T08:25:48.828Z,35.06
2018-08-14T08:26:48.956Z,35.11
2018-08-14T08:27:48.922Z,35.09
2018-08-14T08:28:48.904Z,35.13
2018-08-14T08:29:49.006Z,35.15
2018-08-14T08:30:49.977Z,35.12
2018-08-14T08:31:49.024Z,35.21
2018-08-14T08:32:49.058Z,35.18
2018-08-14T08:33:49.063Z,35.31
2018-08-14T08:34:50.712Z,35.20
2018-08-14T08:35:51.731Z,35.21
2018-08-14T08:36:50.184Z,35.11
2018-08-14T08:37:51.523Z,35.21
2018-08-14T08:38:49.208Z,35.18
2018-08-14T08:39:49.178Z,35.18
2018-08-14T08:40:49.986Z,35.18
2018-08-14T08:41:49.287Z,35.18
2018-08-14T08:42:50.260Z,35.20
2018-08-14T08:43:49.266Z,35.13
2018-08-14T08:44:49.293Z,35.08
2018-08-14T08:45:49.329Z,35.23
2018-08-14T08:46:49.312Z,35.20
2018-08-14T08:47:49.407Z,35.16
2018-08-14T08:48:50.447Z,35.21
2018-08-14T08:49:49.474Z,35.21
2018-08-14T08:50:49.435Z,35.18
2018-08-14T08:51:49.693Z,35.20
2018-08-14T08:52:49.537Z,35.13
2018-08-14T08:53:49.502Z,35.12
2018-08-14T08:54:50.553Z,35.12
2018-08-14T08:55:52.253Z,35.08
2018-08-14T08:56:49.618Z,35.11
2018-08-14T08:57:49.591Z,35.12
2018-08-14T08:58:49.699Z,35.16
2018-08-14T08:59:49.726Z,35.15
2018-08-14T09:00:50.732Z,35.16
2018-08-14T09:01:49.689Z,35.18
2018-08-14T09:02:49.781Z,35.13
2018-08-14T09:03:49.769Z,35.13
2018-08-14T09:04:49.821Z,35.12
2018-08-14T09:05:49.816Z,35.18
2018-08-14T09:06:50.840Z,35.12
2018-08-14T09:07:49.849Z,35.13
2018-08-14T09:08:49.858Z,35.18
2018-08-14T09:09:49.902Z,35.18
2018-08-14T09:10:53.342Z,35.18
2018-08-14T09:11:51.000Z,35.18
2018-08-14T09:12:51.027Z,35.18
2018-08-14T09:13:50.052Z,35.20
2018-08-14T09:14:50.070Z,35.18
2018-08-14T09:15:50.104Z,35.20
2018-08-14T09:16:50.117Z,35.24
2018-08-14T09:17:51.080Z,35.12
2018-08-14T09:18:51.167Z,35.04
2018-08-14T09:19:50.199Z,35.06
2018-08-14T09:20:50.191Z,34.99
2018-08-14T09:21:50.228Z,34.99
2018-08-14T09:22:50.249Z,35.13
2018-08-14T09:23:50.274Z,35.06
2018-08-14T09:24:51.298Z,35.08
2018-08-14T09:25:50.280Z,35.11
2018-08-14T09:26:50.296Z,35.09
2018-08-14T09:27:50.400Z,35.09
2018-08-14T09:28:50.384Z,35.05
2018-08-14T09:29:50.365Z,35.09
2018-08-14T09:30:51.478Z,35.13
2018-08-14T09:31:50.459Z,35.05
2018-08-14T09:32:50.483Z,35.02
2018-08-14T09:33:50.454Z,34.97
2018-08-14T09:34:50.574Z,34.86
2018-08-14T09:35:50.560Z,34.84
2018-08-14T09:36:51.627Z,34.86
2018-08-14T09:37:50.551Z,34.89
2018-08-14T09:38:50.630Z,34.94
2018-08-14T09:39:50.655Z,34.93
2018-08-14T09:40:50.735Z,34.91
2018-08-14T09:41:50.694Z,34.89
2018-08-14T09:42:51.805Z,34.91
2018-08-14T09:43:50.751Z,34.87
2018-08-14T09:44:50.766Z,34.94
2018-08-14T09:45:51.847Z,34.96
2018-08-14T09:46:50.845Z,34.99
2018-08-14T09:47:50.775Z,34.94
2018-08-14T09:48:51.885Z,35.01
2018-08-14T09:49:50.886Z,34.96
2018-08-14T09:50:50.929Z,35.02
2018-08-14T09:51:50.896Z,34.94
2018-08-14T09:52:50.988Z,34.99
2018-08-14T09:53:51.044Z,34.99
2018-08-14T09:54:54.110Z,34.93
2018-08-14T09:55:51.880Z,34.96
2018-08-14T09:56:51.064Z,34.93
2018-08-14T09:57:51.075Z,34.87
2018-08-14T09:58:51.062Z,34.90
2018-08-14T09:59:51.082Z,34.87
2018-08-14T10:00:52.126Z,34.91
2018-08-14T10:01:51.202Z,34.90
2018-08-14T10:02:51.225Z,34.87
2018-08-14T10:03:51.220Z,34.90
2018-08-14T10:04:51.235Z,34.83
2018-08-14T10:05:51.252Z,34.93
2018-08-14T10:06:52.330Z,34.89
2018-08-14T10:07:51.309Z,34.79
2018-08-14T10:08:51.334Z,34.87
2018-08-14T10:09:51.377Z,34.79
2018-08-14T10:10:51.392Z,34.86
2018-08-14T10:11:51.407Z,34.78
2018-08-14T10:12:52.468Z,34.82
2018-08-14T10:13:51.435Z,34.67
2018-08-14T10:14:51.501Z,34.83
2018-08-14T10:15:51.533Z,34.75
2018-08-14T10:16:54.421Z,34.74
2018-08-14T10:17:51.552Z,34.70
2018-08-14T10:18:52.621Z,34.70
2018-08-14T10:19:51.682Z,34.64
2018-08-14T10:20:51.686Z,34.70
2018-08-14T10:21:51.707Z,34.67
2018-08-14T10:22:51.693Z,34.67
2018-08-14T10:23:51.791Z,34.71
2018-08-14T10:24:52.726Z,34.71
2018-08-14T10:25:51.743Z,34.71
2018-08-14T10:26:51.802Z,34.63
2018-08-14T10:27:51.751Z,34.63
2018-08-14T10:28:51.908Z,34.72
2018-08-14T10:29:51.848Z,34.63
2018-08-14T10:30:52.832Z,34.74
2018-08-14T10:31:54.439Z,34.61
2018-08-14T10:32:52.632Z,34.66
2018-08-14T10:33:51.902Z,34.67
2018-08-14T10:34:51.960Z,34.67
2018-08-14T10:35:51.988Z,34.67
2018-08-14T10:36:52.975Z,34.66
2018-08-14T10:37:51.968Z,34.59
2018-08-14T10:38:52.045Z,34.70
2018-08-14T10:39:52.109Z,34.56
2018-08-14T10:40:52.131Z,34.61
2018-08-14T10:41:52.088Z,34.66
2018-08-14T10:42:53.155Z,34.61
2018-08-14T10:43:52.169Z,34.63
2018-08-14T10:44:52.148Z,34.67
2018-08-14T10:45:52.169Z,34.66
2018-08-14T10:46:52.244Z,34.70
2018-08-14T10:47:52.335Z,34.63
2018-08-14T10:48:53.239Z,34.66
2018-08-14T10:49:52.323Z,34.74
2018-08-14T10:50:52.332Z,34.67
2018-08-14T10:51:52.321Z,34.64
2018-08-14T10:52:52.398Z,34.71
2018-08-14T10:53:52.464Z,34.66
2018-08-14T10:54:53.437Z,34.71
2018-08-14T10:55:53.468Z,34.63
2018-08-14T10:56:52.475Z,34.67
2018-08-14T10:57:52.518Z,34.71
2018-08-14T10:58:54.908Z,34.63
2018-08-14T10:59:52.557Z,34.54
2018-08-14T11:00:53.592Z,34.55
2018-08-14T11:01:52.556Z,34.59
2018-08-14T11:02:52.580Z,34.63
2018-08-14T11:03:52.759Z,34.66
2018-08-14T11:04:52.685Z,34.58
2018-08-14T11:05:52.687Z,34.58
2018-08-14T11:06:53.723Z,34.67
2018-08-14T11:07:52.751Z,34.63
2018-08-14T11:08:52.784Z,34.64
2018-08-14T11:09:52.741Z,34.61
2018-08-14T11:10:52.804Z,34.54
2018-08-14T11:11:52.810Z,34.51
2018-08-14T11:12:53.881Z,34.58
2018-08-14T11:13:52.897Z,34.49
2018-08-14T11:14:52.872Z,34.52
2018-08-14T11:15:52.925Z,34.54
2018-08-14T11:16:53.081Z,34.48
2018-08-14T11:17:52.938Z,34.47
2018-08-14T11:18:54.006Z,34.51
2018-08-14T11:19:53.012Z,34.48
2018-08-14T11:20:53.048Z,34.49
2018-08-14T11:21:53.066Z,34.45
2018-08-14T11:22:53.067Z,34.52
2018-08-14T11:23:53.066Z,34.39
2018-08-14T11:24:54.210Z,34.52
2018-08-14T11:25:53.159Z,34.44
2018-08-14T11:26:53.193Z,34.48
2018-08-14T11:27:53.237Z,34.40
2018-08-14T11:28:53.171Z,34.42
2018-08-14T11:29:53.256Z,34.49
2018-08-14T11:30:54.267Z,34.47
2018-08-14T11:31:53.272Z,34.39
2018-08-14T11:32:53.332Z,34.44
2018-08-14T11:33:53.367Z,34.49
2018-08-14T11:34:53.321Z,34.47
2018-08-14T11:35:53.395Z,34.45
2018-08-14T11:36:54.448Z,34.34
2018-08-14T11:37:53.455Z,34.34
2018-08-14T11:38:53.484Z,34.37
2018-08-14T11:39:53.549Z,34.33
2018-08-14T11:40:53.457Z,34.29
2018-08-14T11:41:53.500Z,34.32
2018-08-14T11:42:54.584Z,34.29
2018-08-14T11:43:53.625Z,34.32
2018-08-14T11:44:53.620Z,34.29
2018-08-14T11:45:53.678Z,34.34
2018-08-14T11:46:53.679Z,34.26
2018-08-14T11:47:53.640Z,34.21
2018-08-14T11:48:54.721Z,34.26
2018-08-14T11:49:53.703Z,34.32
2018-08-14T11:50:53.791Z,34.29
2018-08-14T11:51:53.779Z,34.18
2018-08-14T11:52:53.804Z,34.17
2018-08-14T11:53:54.865Z,34.18
2018-08-14T11:54:54.810Z,34.24
2018-08-14T11:55:53.879Z,34.12
2018-08-14T11:56:53.900Z,34.11
2018-08-14T11:57:53.881Z,34.21
2018-08-14T11:58:53.903Z,34.17
2018-08-14T11:59:54.961Z,34.15
2018-08-14T12:00:54.945Z,34.15
2018-08-14T12:01:53.993Z,34.20
2018-08-14T12:02:54.029Z,34.10
2018-08-14T12:03:54.056Z,34.12
2018-08-14T12:04:54.106Z,34.11
2018-08-14T12:05:54.125Z,34.11
2018-08-14T12:06:55.147Z,34.07
2018-08-14T12:07:54.159Z,34.10
2018-08-14T12:08:54.217Z,34.11
2018-08-14T12:09:54.217Z,34.14
2018-08-14T12:10:56.514Z,34.12
2018-08-14T12:11:54.251Z,34.12
2018-08-14T12:12:55.305Z,34.10
2018-08-14T12:13:54.257Z,34.02
2018-08-14T12:14:54.247Z,34.00
2018-08-14T12:15:54.313Z,33.93
2018-08-14T12:16:54.367Z,34.03
2018-08-14T12:17:54.408Z,34.00
2018-08-14T12:18:55.376Z,33.98
2018-08-14T12:19:54.440Z,34.00
2018-08-14T12:20:54.474Z,34.05
2018-08-14T12:21:56.210Z,34.02
2018-08-14T12:22:54.457Z,33.96
2018-08-14T12:23:54.506Z,33.98
2018-08-14T12:24:57.196Z,33.96
2018-08-14T12:25:54.582Z,33.95
2018-08-14T12:26:55.217Z,33.89
2018-08-14T12:27:54.589Z,33.95
2018-08-14T12:28:54.600Z,33.95
2018-08-14T12:29:54.671Z,33.95
2018-08-14T12:30:55.680Z,33.84
2018-08-14T12:31:54.708Z,33.87
2018-08-14T12:32:56.459Z,33.90
2018-08-14T12:33:54.780Z,33.89
2018-08-14T12:34:54.767Z,33.87
2018-08-14T12:35:54.803Z,33.87
2018-08-14T12:36:55.861Z,33.84
2018-08-14T12:37:54.789Z,33.87
2018-08-14T12:38:54.882Z,33.90
2018-08-14T12:39:54.896Z,33.90
2018-08-14T12:40:56.491Z,33.85
2018-08-14T12:41:54.939Z,33.87
2018-08-14T12:42:56.004Z,33.90
2018-08-14T12:43:54.952Z,33.89
2018-08-14T12:44:55.030Z,33.90
2018-08-14T12:45:55.720Z,33.90
2018-08-14T12:46:55.069Z,33.81
2018-08-14T12:47:55.040Z,33.85
2018-08-14T12:48:56.138Z,33.85
2018-08-14T12:49:57.145Z,33.87
2018-08-14T12:50:55.134Z,33.87
2018-08-14T12:51:55.163Z,33.83
2018-08-14T12:52:55.997Z,33.81
2018-08-14T12:53:55.224Z,33.81